Time;durP1;ratioP1;P1;durP2;ratioP2;P2;SDS_P1;SDS_P2;PMS_P1;PMS_P2;Temp;Humidity;BMP_temperature;BMP_pressure;BME280_temperature;BME280_humidity;BME280_pressure;Samples;Min_cycle;Max_cycle;Signal;HPM_P1;HPM_P2
2020/12/15 00:00:50;;;;;;;;;;;13.00;90.20;;;;;;2075252;28;1484;-51
2020/12/15 00:02:09;;;;;;;;;;;13.00;90.20;;;;;;2070369;28;772;-50
2020/12/15 00:03:28;;;;;;;;;;;13.00;90.20;;;;;;2073934;28;717;-50
2020/12/15 00:04:47;;;;;;;;;;;13.00;90.50;;;;;;2073372;28;740;-49
2020/12/15 00:06:07;;;;;;;;;;;13.00;90.50;;;;;;2074287;28;724;-50
2020/12/15 00:07:26;;;;;;;;;;;13.00;90.20;;;;;;2073931;28;744;-50
2020/12/15 00:08:45;;;;;;;;;;;13.00;90.20;;;;;;2074260;28;727;-51
2020/12/15 00:10:04;;;;;;;;;;;13.00;90.20;;;;;;2074186;28;1918;-50
2020/12/15 00:11:24;;;;;;;;;;;13.00;90.20;;;;;;2074063;28;1383;-50
2020/12/15 00:12:43;;;;;;;;;;;13.00;90.10;;;;;;2074394;28;717;-51
2020/12/15 00:14:02;;;;;;;;;;;13.00;90.20;;;;;;2073976;28;724;-50
2020/12/15 00:15:22;;;;;;;;;;;13.00;90.10;;;;;;2073268;28;783;-49
2020/12/15 00:16:41;;;;;;;;;;;13.00;90.10;;;;;;2074103;28;696;-50
2020/12/15 00:18:00;;;;;;;;;;;13.00;90.10;;;;;;2065218;28;751;-49
2020/12/15 00:19:19;;;;;;;;;;;13.00;90.10;;;;;;2070475;28;717;-51
2020/12/15 00:20:39;;;;;;;;;;;13.00;90.10;;;;;;2074622;28;1556;-50
2020/12/15 00:21:58;;;;;;;;;;;13.00;90.10;;;;;;2077351;28;1024;-49
2020/12/15 00:23:17;;;;;;;;;;;13.00;90.10;;;;;;2078893;28;1315;-51
2020/12/15 00:24:37;;;;;;;;;;;13.00;90.10;;;;;;2070108;28;1247;-50
2020/12/15 00:25:56;;;;;;;;;;;13.00;90.10;;;;;;2075463;28;782;-50
2020/12/15 00:27:16;;;;;;;;;;;13.00;90.10;;;;;;2082192;28;717;-51
2020/12/15 00:28:35;;;;;;;;;;;13.00;90.10;;;;;;2082194;28;771;-51
2020/12/15 00:29:54;;;;;;;;;;;13.00;90.10;;;;;;2081777;28;1902;-50
2020/12/15 00:31:14;;;;;;;;;;;13.00;90.10;;;;;;2075313;28;1512;-50
2020/12/15 00:32:33;;;;;;;;;;;13.00;90.10;;;;;;2081457;28;714;-51
2020/12/15 00:33:52;;;;;;;;;;;13.00;90.10;;;;;;2077092;28;714;-50
2020/12/15 00:35:11;;;;;;;;;;;13.00;90.10;;;;;;2080880;28;737;-49
2020/12/15 00:36:31;;;;;;;;;;;13.00;90.10;;;;;;2073265;28;873;-50
2020/12/15 00:37:50;;;;;;;;;;;12.90;90.00;;;;;;2070119;28;735;-51
2020/12/15 00:39:09;;;;;;;;;;;13.00;90.10;;;;;;2070226;28;728;-52
2020/12/15 00:40:28;;;;;;;;;;;13.00;90.40;;;;;;2073725;28;732;-53
2020/12/15 00:41:48;;;;;;;;;;;13.00;90.40;;;;;;2073729;28;727;-49
2020/12/15 00:43:07;;;;;;;;;;;13.00;90.40;;;;;;2081459;28;782;-49
2020/12/15 00:44:26;;;;;;;;;;;13.00;90.00;;;;;;2076885;28;741;-50
2020/12/15 00:45:46;;;;;;;;;;;13.00;90.00;;;;;;2073288;28;757;-51
2020/12/15 00:47:05;;;;;;;;;;;13.00;90.00;;;;;;2070097;28;1013;-50
2020/12/15 00:48:25;;;;;;;;;;;13.00;90.00;;;;;;2078335;28;795;-51
2020/12/15 00:49:44;;;;;;;;;;;13.00;90.00;;;;;;2073218;28;1879;-51
2020/12/15 00:51:03;;;;;;;;;;;12.90;90.00;;;;;;2070040;28;1376;-51
2020/12/15 00:52:31;;;;;;;;;;;12.90;90.00;;;;;;2071825;28;1341;-49
2020/12/15 00:53:50;;;;;;;;;;;12.90;90.00;;;;;;2063052;28;735;-50
2020/12/15 00:55:13;;;;;;;;;;;12.90;90.00;;;;;;2069984;28;1213;-50
2020/12/15 00:56:32;;;;;;;;;;;13.00;90.00;;;;;;2075054;28;1013;-50
2020/12/15 00:57:51;;;;;;;;;;;12.90;90.00;;;;;;2074875;28;1295;-50
2020/12/15 00:59:11;;;;;;;;;;;12.90;90.00;;;;;;2073014;28;1311;-49
2020/12/15 01:00:30;;;;;;;;;;;12.90;90.00;;;;;;2078046;28;1399;-51
2020/12/15 01:01:49;;;;;;;;;;;12.90;90.30;;;;;;2074303;28;1104;-53
2020/12/15 01:03:10;;;;;;;;;;;12.90;90.00;;;;;;2070084;28;770;-50
2020/12/15 01:04:29;;;;;;;;;;;12.90;89.90;;;;;;2073910;28;1379;-50
2020/12/15 01:05:50;;;;;;;;;;;12.90;90.00;;;;;;2069889;28;738;-52
2020/12/15 01:07:09;;;;;;;;;;;12.90;89.90;;;;;;2080304;28;1544;-50
2020/12/15 01:08:29;;;;;;;;;;;12.90;89.80;;;;;;2073326;28;728;-50
2020/12/15 01:09:48;;;;;;;;;;;12.90;89.90;;;;;;2069448;28;1910;-49
2020/12/15 01:11:08;;;;;;;;;;;12.90;89.80;;;;;;2073643;28;1368;-50
2020/12/15 01:12:27;;;;;;;;;;;12.90;89.80;;;;;;2073095;28;705;-50
2020/12/15 01:13:47;;;;;;;;;;;12.90;89.90;;;;;;2073323;28;701;-50
2020/12/15 01:15:06;;;;;;;;;;;12.90;90.00;;;;;;2072264;28;712;-50
2020/12/15 01:16:26;;;;;;;;;;;12.90;90.20;;;;;;2069930;28;724;-53
2020/12/15 01:17:47;;;;;;;;;;;12.90;89.80;;;;;;2070017;28;712;-51
2020/12/15 01:19:10;;;;;;;;;;;12.90;89.80;;;;;;2070388;28;684;-50
2020/12/15 01:20:31;;;;;;;;;;;12.90;89.80;;;;;;2073044;28;700;-50
2020/12/15 01:21:50;;;;;;;;;;;12.90;89.80;;;;;;2056701;28;722;-50
2020/12/15 01:23:15;;;;;;;;;;;12.90;89.80;;;;;;2068318;28;709;-51
2020/12/15 01:24:41;;;;;;;;;;;12.90;89.80;;;;;;2070570;28;975;-50
2020/12/15 01:26:16;;;;;;;;;;;12.90;89.80;;;;;;2071835;28;755;-53
2020/12/15 01:27:36;;;;;;;;;;;12.90;90.20;;;;;;2069898;28;906;-51
2020/12/15 01:29:01;;;;;;;;;;;12.90;90.20;;;;;;2070732;28;715;-52
2020/12/15 01:30:21;;;;;;;;;;;12.90;89.90;;;;;;2080736;28;1975;-51
2020/12/15 01:32:07;;;;;;;;;;;12.90;90.00;;;;;;2072717;28;1094;-50
2020/12/15 01:33:27;;;;;;;;;;;12.90;89.80;;;;;;2072958;28;968;-50
2020/12/15 01:35:03;;;;;;;;;;;12.90;89.80;;;;;;2071184;28;1058;-50
2020/12/15 01:36:26;;;;;;;;;;;12.90;89.80;;;;;;2061502;28;823;-53
2020/12/15 01:37:48;;;;;;;;;;;12.90;89.80;;;;;;2070522;28;759;-51
2020/12/15 01:39:13;;;;;;;;;;;12.90;89.70;;;;;;2070551;28;707;-51
2020/12/15 01:40:47;;;;;;;;;;;12.90;89.80;;;;;;2071127;28;1344;-50
2020/12/15 01:42:09;;;;;;;;;;;12.90;89.80;;;;;;2062155;28;771;-50
2020/12/15 01:43:34;;;;;;;;;;;12.90;89.80;;;;;;2068320;28;808;-51
2020/12/15 01:44:53;;;;;;;;;;;12.90;89.80;;;;;;2063941;28;821;-52
2020/12/15 01:46:13;;;;;;;;;;;12.90;89.80;;;;;;2066703;28;708;-52
2020/12/15 01:47:32;;;;;;;;;;;12.90;89.80;;;;;;2069512;28;780;-51
2020/12/15 01:48:52;;;;;;;;;;;12.90;89.80;;;;;;2069715;28;748;-54
2020/12/15 01:50:11;;;;;;;;;;;12.80;89.70;;;;;;2069561;28;2024;-51
2020/12/15 01:51:30;;;;;;;;;;;12.90;89.80;;;;;;2066908;28;1374;-52
2020/12/15 01:52:55;;;;;;;;;;;12.90;89.70;;;;;;2070215;28;743;-53
2020/12/15 01:54:15;;;;;;;;;;;12.80;89.60;;;;;;2068594;28;742;-50
2020/12/15 01:55:39;;;;;;;;;;;12.80;89.70;;;;;;2067494;28;745;-52
2020/12/15 01:57:03;;;;;;;;;;;12.80;89.60;;;;;;2060188;28;760;-52
2020/12/15 01:58:39;;;;;;;;;;;12.80;89.60;;;;;;2060780;28;813;-51
2020/12/15 02:00:03;;;;;;;;;;;12.80;89.60;;;;;;2076770;28;947;-51
2020/12/15 02:01:44;;;;;;;;;;;12.80;89.60;;;;;;2072237;28;1348;-51
2020/12/15 02:03:05;;;;;;;;;;;12.80;89.60;;;;;;2080826;28;830;-51
2020/12/15 02:04:51;;;;;;;;;;;12.80;89.70;;;;;;2080502;28;1055;-51
2020/12/15 02:06:14;;;;;;;;;;;12.80;90.10;;;;;;2072656;28;742;-50
2020/12/15 02:07:51;;;;;;;;;;;12.80;89.60;;;;;;2080485;28;750;-51
2020/12/15 02:09:11;;;;;;;;;;;12.80;89.60;;;;;;2069703;28;757;-52
2020/12/15 02:10:33;;;;;;;;;;;12.80;89.60;;;;;;2069706;28;1967;-51
2020/12/15 02:12:07;;;;;;;;;;;12.80;90.10;;;;;;2079324;28;746;-50
2020/12/15 02:13:30;;;;;;;;;;;12.80;90.10;;;;;;2069899;28;734;-50
2020/12/15 02:14:54;;;;;;;;;;;12.80;89.50;;;;;;2078169;28;713;-52
2020/12/15 02:16:24;;;;;;;;;;;12.80;89.60;;;;;;2078933;28;968;-52
2020/12/15 02:17:47;;;;;;;;;;;12.80;89.60;;;;;;2070223;28;709;-52
2020/12/15 02:19:17;;;;;;;;;;;12.80;89.60;;;;;;2077537;28;867;-51
2020/12/15 02:20:38;;;;;;;;;;;12.80;89.60;;;;;;2077895;28;1270;-52
2020/12/15 02:22:06;;;;;;;;;;;12.80;89.50;;;;;;2086826;28;733;-51
2020/12/15 02:23:32;;;;;;;;;;;12.80;89.50;;;;;;2080870;28;749;-52
2020/12/15 02:25:06;;;;;;;;;;;12.80;89.50;;;;;;2078373;28;729;-51
2020/12/15 02:26:25;;;;;;;;;;;12.80;89.50;;;;;;2071375;28;733;-50
2020/12/15 02:27:45;;;;;;;;;;;12.80;90.00;;;;;;2074586;28;785;-52
2020/12/15 02:29:06;;;;;;;;;;;12.80;89.50;;;;;;2077804;28;724;-52
2020/12/15 02:30:27;;;;;;;;;;;12.80;89.50;;;;;;2076792;28;1911;-50
2020/12/15 02:31:50;;;;;;;;;;;12.80;89.50;;;;;;2062007;28;1969;-51
2020/12/15 02:33:11;;;;;;;;;;;12.80;89.50;;;;;;2059668;28;1053;-51
2020/12/15 02:34:35;;;;;;;;;;;12.80;89.50;;;;;;2067968;28;753;-50
2020/12/15 02:35:57;;;;;;;;;;;12.80;89.50;;;;;;2073672;28;697;-50
2020/12/15 02:37:17;;;;;;;;;;;12.80;89.50;;;;;;2072217;28;722;-50
2020/12/15 02:38:46;;;;;;;;;;;12.80;89.50;;;;;;2073069;28;709;-49
2020/12/15 02:40:07;;;;;;;;;;;12.80;89.50;;;;;;2072679;28;713;-50
2020/12/15 02:41:53;;;;;;;;;;;12.80;89.50;;;;;;2072946;28;792;-52
2020/12/15 02:43:13;;;;;;;;;;;12.80;89.50;;;;;;2072416;28;748;-50
2020/12/15 02:44:39;;;;;;;;;;;12.80;89.60;;;;;;2072523;28;729;-51
2020/12/15 02:46:04;;;;;;;;;;;12.70;90.00;;;;;;2078389;28;704;-52
2020/12/15 02:47:24;;;;;;;;;;;12.80;89.50;;;;;;2075224;28;735;-50
2020/12/15 02:48:43;;;;;;;;;;;12.80;89.60;;;;;;2074001;28;1635;-50
2020/12/15 02:50:06;;;;;;;;;;;12.80;89.50;;;;;;2077803;28;1910;-51
2020/12/15 02:51:26;;;;;;;;;;;12.70;89.30;;;;;;2069898;28;1340;-51
2020/12/15 02:53:07;;;;;;;;;;;12.70;90.00;;;;;;2072131;28;810;-50
2020/12/15 02:54:31;;;;;;;;;;;12.80;89.50;;;;;;2077910;28;752;-51
2020/12/15 02:55:51;;;;;;;;;;;12.70;89.30;;;;;;2069283;28;726;-49
2020/12/15 02:57:16;;;;;;;;;;;12.70;89.30;;;;;;2076002;28;693;-51
2020/12/15 02:58:36;;;;;;;;;;;12.70;89.30;;;;;;2066473;28;1293;-51
2020/12/15 02:59:57;;;;;;;;;;;12.70;89.30;;;;;;2077862;28;727;-49
2020/12/15 03:01:19;;;;;;;;;;;12.70;89.30;;;;;;2077970;28;1333;-50
2020/12/15 03:02:41;;;;;;;;;;;12.70;89.40;;;;;;2063695;28;962;-52
2020/12/15 03:04:00;;;;;;;;;;;12.70;89.30;;;;;;2074592;28;1021;-51
2020/12/15 03:05:28;;;;;;;;;;;12.70;89.30;;;;;;2077956;28;719;-51
2020/12/15 03:06:48;;;;;;;;;;;12.70;89.30;;;;;;2069122;28;760;-50
2020/12/15 03:08:17;;;;;;;;;;;12.70;90.00;;;;;;2076806;28;1050;-52
2020/12/15 03:09:37;;;;;;;;;;;12.70;89.40;;;;;;2076663;28;1412;-51
2020/12/15 03:10:57;;;;;;;;;;;12.70;89.30;;;;;;2075671;28;1392;-52
2020/12/15 03:12:18;;;;;;;;;;;12.70;89.30;;;;;;2076450;28;1408;-52
2020/12/15 03:13:42;;;;;;;;;;;12.70;89.30;;;;;;2075419;28;1200;-51
2020/12/15 03:15:02;;;;;;;;;;;12.70;89.30;;;;;;2071690;28;762;-49
2020/12/15 03:16:22;;;;;;;;;;;12.70;89.30;;;;;;2072271;28;791;-51
2020/12/15 03:17:43;;;;;;;;;;;12.70;89.30;;;;;;2072527;28;715;-50
2020/12/15 03:19:03;;;;;;;;;;;12.70;89.30;;;;;;2069249;28;764;-52
2020/12/15 03:20:22;;;;;;;;;;;12.70;90.00;;;;;;2072790;28;756;-52
2020/12/15 03:21:41;;;;;;;;;;;12.70;89.30;;;;;;2080484;28;739;-52
2020/12/15 03:23:00;;;;;;;;;;;12.70;89.30;;;;;;2071968;28;776;-51
2020/12/15 03:24:24;;;;;;;;;;;12.70;89.20;;;;;;2072312;28;793;-52
2020/12/15 03:25:45;;;;;;;;;;;12.70;89.30;;;;;;2078451;28;741;-51
2020/12/15 03:27:04;;;;;;;;;;;12.70;89.30;;;;;;2073881;28;764;-49
2020/12/15 03:28:27;;;;;;;;;;;12.70;89.30;;;;;;2079563;28;758;-51
2020/12/15 03:29:54;;;;;;;;;;;12.70;89.30;;;;;;2073882;28;1906;-52
2020/12/15 03:31:13;;;;;;;;;;;12.70;89.30;;;;;;2078769;28;1431;-53
2020/12/15 03:32:33;;;;;;;;;;;12.70;89.30;;;;;;2076155;28;1258;-51
2020/12/15 03:33:52;;;;;;;;;;;12.70;89.30;;;;;;2075862;28;1372;-52
2020/12/15 03:35:11;;;;;;;;;;;12.70;89.30;;;;;;2072160;28;1600;-51
2020/12/15 03:36:31;;;;;;;;;;;12.70;90.00;;;;;;2076976;28;1176;-51
2020/12/15 03:37:52;;;;;;;;;;;12.70;89.30;;;;;;2064269;28;1118;-50
2020/12/15 03:39:23;;;;;;;;;;;12.70;89.30;;;;;;2067903;28;1171;-51
2020/12/15 03:40:42;;;;;;;;;;;12.70;89.30;;;;;;2072137;28;1467;-50
2020/12/15 03:42:21;;;;;;;;;;;12.70;89.30;;;;;;2076737;28;1256;-53
2020/12/15 03:43:40;;;;;;;;;;;12.70;89.30;;;;;;2075143;28;1192;-50
2020/12/15 03:45:14;;;;;;;;;;;12.70;89.20;;;;;;2073922;28;1205;-54
2020/12/15 03:46:33;;;;;;;;;;;12.70;89.30;;;;;;2074722;28;1233;-52
2020/12/15 03:47:56;;;;;;;;;;;12.60;89.20;;;;;;2075389;28;1104;-48
2020/12/15 03:49:15;;;;;;;;;;;12.70;89.30;;;;;;2070906;28;1112;-51
2020/12/15 03:50:41;;;;;;;;;;;12.70;89.90;;;;;;2075967;28;1980;-51
2020/12/15 03:52:01;;;;;;;;;;;12.70;89.20;;;;;;2077560;28;1340;-51
2020/12/15 03:53:21;;;;;;;;;;;12.60;89.10;;;;;;2078847;28;1248;-51
2020/12/15 03:54:41;;;;;;;;;;;12.70;89.20;;;;;;2068450;28;1110;-52
2020/12/15 03:56:12;;;;;;;;;;;12.70;89.20;;;;;;2074015;28;1193;-50
2020/12/15 03:57:32;;;;;;;;;;;12.70;89.20;;;;;;2075339;28;1234;-50
2020/12/15 03:59:14;;;;;;;;;;;12.70;89.30;;;;;;2077704;28;1627;-53
2020/12/15 04:00:33;;;;;;;;;;;12.60;89.10;;;;;;2074926;28;1110;-50
2020/12/15 04:02:10;;;;;;;;;;;12.60;89.10;;;;;;2079245;28;1158;-50
2020/12/15 04:03:30;;;;;;;;;;;12.60;89.10;;;;;;2076332;28;1915;-53
2020/12/15 04:04:56;;;;;;;;;;;12.60;89.10;;;;;;2067040;28;1313;-50
2020/12/15 04:06:15;;;;;;;;;;;12.60;89.10;;;;;;2070778;28;1329;-50
2020/12/15 04:07:42;;;;;;;;;;;12.60;89.10;;;;;;2068375;28;1123;-53
2020/12/15 04:09:02;;;;;;;;;;;12.60;89.20;;;;;;2063987;28;1280;-50
2020/12/15 04:10:21;;;;;;;;;;;12.60;89.20;;;;;;2064565;28;1963;-49
2020/12/15 04:11:40;;;;;;;;;;;12.70;89.20;;;;;;2064622;28;924;-49
2020/12/15 04:13:00;;;;;;;;;;;12.60;89.10;;;;;;2072839;28;1188;-49
2020/12/15 04:14:24;;;;;;;;;;;12.60;89.10;;;;;;2073016;28;1143;-51
2020/12/15 04:15:44;;;;;;;;;;;12.60;89.10;;;;;;2081968;28;1178;-52
2020/12/15 04:17:08;;;;;;;;;;;12.60;89.10;;;;;;2079591;28;1054;-49
2020/12/15 04:18:28;;;;;;;;;;;12.60;89.10;;;;;;2073565;28;1078;-50
2020/12/15 04:19:50;;;;;;;;;;;12.60;89.10;;;;;;2072630;28;1347;-49
2020/12/15 04:21:10;;;;;;;;;;;12.60;89.50;;;;;;2074141;28;1501;-50
2020/12/15 04:22:30;;;;;;;;;;;12.60;89.10;;;;;;2077246;28;1443;-50
2020/12/15 04:23:49;;;;;;;;;;;12.60;89.10;;;;;;2075132;28;1197;-50
2020/12/15 04:25:13;;;;;;;;;;;12.60;89.10;;;;;;2077070;28;1393;-50
2020/12/15 04:26:36;;;;;;;;;;;12.60;89.10;;;;;;2072679;28;1142;-53
2020/12/15 04:27:55;;;;;;;;;;;12.60;89.20;;;;;;2081967;28;1309;-51
2020/12/15 04:29:15;;;;;;;;;;;12.60;89.10;;;;;;2079072;28;1156;-50
2020/12/15 04:30:47;;;;;;;;;;;12.60;89.10;;;;;;2079001;28;1915;-53
2020/12/15 04:32:06;;;;;;;;;;;12.60;89.10;;;;;;2077099;28;1437;-52
2020/12/15 04:33:36;;;;;;;;;;;12.60;89.10;;;;;;2073911;28;1262;-53
2020/12/15 04:34:56;;;;;;;;;;;12.60;89.10;;;;;;2070841;28;1268;-50
2020/12/15 04:36:15;;;;;;;;;;;12.60;89.10;;;;;;2068856;28;1159;-50
2020/12/15 04:37:35;;;;;;;;;;;12.60;89.10;;;;;;2070381;28;1079;-51
2020/12/15 04:38:58;;;;;;;;;;;12.60;89.10;;;;;;2079045;28;1340;-50
2020/12/15 04:40:29;;;;;;;;;;;12.60;89.10;;;;;;2071991;28;1213;-50
2020/12/15 04:41:48;;;;;;;;;;;12.60;89.10;;;;;;2073966;28;1338;-51
2020/12/15 04:43:09;;;;;;;;;;;12.60;89.10;;;;;;2067108;28;1274;-51
2020/12/15 04:44:29;;;;;;;;;;;12.60;89.10;;;;;;2074133;28;1035;-50
2020/12/15 04:45:48;;;;;;;;;;;12.60;89.10;;;;;;2085909;28;1270;-52
2020/12/15 04:47:18;;;;;;;;;;;12.60;89.10;;;;;;2080813;28;1491;-50
2020/12/15 04:48:50;;;;;;;;;;;12.60;89.20;;;;;;2076340;28;1179;-50
2020/12/15 04:50:11;;;;;;;;;;;12.60;89.90;;;;;;2075734;28;1991;-51
2020/12/15 04:51:56;;;;;;;;;;;12.60;90.20;;;;;;2077258;28;1282;-52
2020/12/15 04:53:26;;;;;;;;;;;12.60;90.10;;;;;;2080336;28;1087;-50
2020/12/15 04:55:04;;;;;;;;;;;12.70;90.70;;;;;;2066178;28;1144;-50
2020/12/15 04:56:32;;;;;;;;;;;12.70;90.60;;;;;;2071992;28;1198;-50
2020/12/15 04:58:10;;;;;;;;;;;12.70;90.80;;;;;;2078616;28;1060;-51
2020/12/15 04:59:30;;;;;;;;;;;12.70;90.60;;;;;;2067166;28;1120;-50
2020/12/15 05:00:56;;;;;;;;;;;12.70;90.50;;;;;;2070401;28;1369;-50
2020/12/15 05:02:23;;;;;;;;;;;12.60;90.50;;;;;;2075180;28;1172;-50
2020/12/15 05:03:43;;;;;;;;;;;12.60;90.70;;;;;;2080749;28;1273;-52
2020/12/15 05:05:02;;;;;;;;;;;12.60;91.00;;;;;;2077933;28;1235;-50
2020/12/15 05:06:25;;;;;;;;;;;12.60;91.10;;;;;;2076142;28;1268;-50
2020/12/15 05:07:44;;;;;;;;;;;12.60;90.80;;;;;;2068838;28;1185;-52
2020/12/15 05:09:26;;;;;;;;;;;12.60;90.80;;;;;;2067774;28;1301;-48
2020/12/15 05:10:45;;;;;;;;;;;12.60;90.90;;;;;;2070299;28;1994;-49
2020/12/15 05:12:40;;;;;;;;;;;12.60;91.20;;;;;;2070701;28;1408;-51
2020/12/15 05:14:00;;;;;;;;;;;12.60;90.90;;;;;;2058155;28;1319;-51
2020/12/15 05:15:19;;;;;;;;;;;12.60;90.90;;;;;;2077391;28;1255;-53
2020/12/15 05:16:41;;;;;;;;;;;12.60;90.90;;;;;;2077131;28;1258;-49
2020/12/15 05:18:19;;;;;;;;;;;12.60;91.00;;;;;;2073786;28;951;-50
2020/12/15 05:19:44;;;;;;;;;;;12.60;91.30;;;;;;2076095;28;1359;-51
2020/12/15 05:21:12;;;;;;;;;;;12.60;91.00;;;;;;2077727;28;1796;-51
2020/12/15 05:22:44;;;;;;;;;;;12.60;91.00;;;;;;2075091;28;1178;-49
2020/12/15 05:24:10;;;;;;;;;;;12.60;91.00;;;;;;2075281;28;968;-52
2020/12/15 05:25:42;;;;;;;;;;;12.60;91.00;;;;;;2069088;28;1129;-51
2020/12/15 05:27:04;;;;;;;;;;;12.60;91.00;;;;;;2072945;28;1101;-50
2020/12/15 05:28:43;;;;;;;;;;;12.60;91.00;;;;;;2066314;28;1120;-51
2020/12/15 05:30:09;;;;;;;;;;;12.60;91.00;;;;;;2072400;28;1940;-51
2020/12/15 05:31:42;;;;;;;;;;;12.60;90.90;;;;;;2068106;28;1116;-53
2020/12/15 05:33:23;;;;;;;;;;;12.60;90.90;;;;;;2074510;28;1004;-51
2020/12/15 05:35:11;;;;;;;;;;;12.60;90.90;;;;;;2053625;28;1134;-51
2020/12/15 05:36:56;;;;;;;;;;;12.60;91.00;;;;;;2073088;28;1405;-50
2020/12/15 05:38:34;;;;;;;;;;;12.60;90.90;;;;;;2076530;28;1095;-49
2020/12/15 05:40:02;;;;;;;;;;;12.60;90.80;;;;;;2077693;28;1362;-50
2020/12/15 05:41:31;;;;;;;;;;;12.60;90.80;;;;;;2075671;28;1664;-50
2020/12/15 05:43:02;;;;;;;;;;;12.60;90.70;;;;;;2073941;28;1101;-50
2020/12/15 05:44:24;;;;;;;;;;;12.60;90.60;;;;;;2083313;28;1124;-50
2020/12/15 05:45:48;;;;;;;;;;;12.60;90.90;;;;;;2077617;28;1150;-53
2020/12/15 05:47:08;;;;;;;;;;;12.60;90.50;;;;;;2073762;28;1118;-50
2020/12/15 05:48:34;;;;;;;;;;;12.60;90.40;;;;;;2067609;28;1167;-49
2020/12/15 05:49:53;;;;;;;;;;;12.60;90.40;;;;;;2070688;28;1987;-49
2020/12/15 05:51:12;;;;;;;;;;;12.60;90.40;;;;;;2068492;28;1452;-51
2020/12/15 05:52:31;;;;;;;;;;;12.60;90.30;;;;;;2074317;28;1131;-49
2020/12/15 05:53:51;;;;;;;;;;;12.60;90.40;;;;;;2078741;28;1207;-50
2020/12/15 05:55:10;;;;;;;;;;;12.60;91.20;;;;;;2074378;28;1311;-50
2020/12/15 05:56:29;;;;;;;;;;;12.70;91.70;;;;;;2074747;28;1162;-53
2020/12/15 05:57:50;;;;;;;;;;;12.70;91.60;;;;;;2065715;28;1205;-49
2020/12/15 05:59:17;;;;;;;;;;;12.80;91.70;;;;;;2069003;28;919;-50
2020/12/15 06:00:37;;;;;;;;;;;12.80;91.60;;;;;;2067544;28;949;-50
2020/12/15 06:02:06;;;;;;;;;;;12.80;91.60;;;;;;2075034;28;1042;-49
2020/12/15 06:03:25;;;;;;;;;;;12.90;91.50;;;;;;2075752;28;1332;-53
2020/12/15 06:04:45;;;;;;;;;;;12.90;91.30;;;;;;2073219;28;1155;-53
2020/12/15 06:06:04;;;;;;;;;;;12.90;91.10;;;;;;2076108;28;1060;-50
2020/12/15 06:07:23;;;;;;;;;;;13.00;90.90;;;;;;2077004;28;1049;-50
2020/12/15 06:08:42;;;;;;;;;;;13.00;90.60;;;;;;2072963;28;1475;-50
2020/12/15 06:10:03;;;;;;;;;;;13.10;90.30;;;;;;2064798;28;1973;-50
2020/12/15 06:11:22;;;;;;;;;;;13.10;90.00;;;;;;2071136;28;1399;-50
2020/12/15 06:12:41;;;;;;;;;;;13.20;89.50;;;;;;2080147;28;1003;-49
2020/12/15 06:14:00;;;;;;;;;;;13.20;89.00;;;;;;2073916;28;1258;-50
2020/12/15 06:15:19;;;;;;;;;;;13.30;88.50;;;;;;2078335;28;1123;-50
2020/12/15 06:16:38;;;;;;;;;;;13.30;87.80;;;;;;2078149;28;939;-51
2020/12/15 06:18:01;;;;;;;;;;;13.40;88.00;;;;;;2078436;28;1279;-50
2020/12/15 06:19:21;;;;;;;;;;;13.40;87.40;;;;;;2079306;28;985;-50
2020/12/15 06:20:42;;;;;;;;;;;13.50;86.10;;;;;;2077462;28;1436;-53
2020/12/15 06:22:01;;;;;;;;;;;13.50;85.30;;;;;;2072564;28;1216;-52
2020/12/15 06:23:20;;;;;;;;;;;13.60;84.80;;;;;;2077759;28;1215;-54
2020/12/15 06:24:40;;;;;;;;;;;13.60;84.20;;;;;;2077113;28;1342;-50
2020/12/15 06:25:59;;;;;;;;;;;13.70;83.50;;;;;;2072278;28;1258;-50
2020/12/15 06:27:18;;;;;;;;;;;13.70;82.70;;;;;;2076878;28;1204;-53
2020/12/15 06:28:38;;;;;;;;;;;13.80;82.50;;;;;;2072222;28;1295;-50
2020/12/15 06:29:57;;;;;;;;;;;13.80;81.90;;;;;;2078077;28;1899;-52
2020/12/15 06:31:19;;;;;;;;;;;13.90;81.40;;;;;;2078628;28;1518;-52
2020/12/15 06:32:38;;;;;;;;;;;13.90;81.00;;;;;;2075022;28;1018;-51
2020/12/15 06:33:58;;;;;;;;;;;14.00;80.50;;;;;;2071428;28;1175;-52
2020/12/15 06:35:23;;;;;;;;;;;14.00;80.00;;;;;;2076713;28;1140;-53
2020/12/15 06:36:42;;;;;;;;;;;14.10;79.50;;;;;;2080390;28;1145;-53
2020/12/15 06:38:01;;;;;;;;;;;14.10;79.70;;;;;;2078007;28;1137;-52
2020/12/15 06:39:20;;;;;;;;;;;14.20;78.60;;;;;;2076262;28;1136;-53
2020/12/15 06:40:40;;;;;;;;;;;14.20;78.00;;;;;;2077173;28;1292;-50
2020/12/15 06:41:59;;;;;;;;;;;14.30;77.60;;;;;;2079620;28;1131;-52
2020/12/15 06:43:25;;;;;;;;;;;14.30;77.10;;;;;;2079605;28;1125;-52
2020/12/15 06:44:44;;;;;;;;;;;14.40;76.70;;;;;;2079042;28;1121;-52
2020/12/15 06:46:03;;;;;;;;;;;14.40;76.20;;;;;;2072159;28;1227;-51
2020/12/15 06:47:24;;;;;;;;;;;14.40;76.70;;;;;;2078491;28;1338;-53
2020/12/15 06:48:43;;;;;;;;;;;14.50;75.70;;;;;;2078053;28;925;-51
2020/12/15 06:50:12;;;;;;;;;;;14.50;75.60;;;;;;2075239;28;1977;-52
2020/12/15 06:51:32;;;;;;;;;;;14.50;75.40;;;;;;2075861;28;1364;-50
2020/12/15 06:52:52;;;;;;;;;;;14.50;75.40;;;;;;2073929;28;1239;-50
2020/12/15 06:54:10;;;;;;;;;;;14.50;76.30;;;;;;2068046;28;1338;-51
2020/12/15 06:55:30;;;;;;;;;;;14.50;75.70;;;;;;2076265;28;1342;-52
2020/12/15 06:56:58;;;;;;;;;;;14.50;75.70;;;;;;2075914;28;1258;-51
2020/12/15 06:58:21;;;;;;;;;;;14.50;75.90;;;;;;2071794;28;1158;-49
2020/12/15 06:59:41;;;;;;;;;;;14.50;76.70;;;;;;2079469;28;1189;-50
2020/12/15 07:01:02;;;;;;;;;;;14.50;75.80;;;;;;2076910;28;1815;-52
2020/12/15 07:02:26;;;;;;;;;;;14.50;75.70;;;;;;2076249;28;1044;-52
2020/12/15 07:03:45;;;;;;;;;;;14.60;75.50;;;;;;2077476;28;1363;-50
2020/12/15 07:05:23;;;;;;;;;;;14.60;75.30;;;;;;2071990;28;1223;-51
2020/12/15 07:06:42;;;;;;;;;;;14.70;75.70;;;;;;2071472;28;1342;-49
2020/12/15 07:08:05;;;;;;;;;;;14.70;74.70;;;;;;2074949;28;1241;-51
2020/12/15 07:09:24;;;;;;;;;;;14.70;74.50;;;;;;2079427;28;1101;-49
2020/12/15 07:10:43;;;;;;;;;;;14.80;74.20;;;;;;2078687;28;1902;-53
2020/12/15 07:12:04;;;;;;;;;;;14.90;74.00;;;;;;2076923;28;1187;-52
2020/12/15 07:13:23;;;;;;;;;;;14.90;73.60;;;;;;2078552;28;1267;-50
2020/12/15 07:14:43;;;;;;;;;;;15.00;73.30;;;;;;2076695;28;1211;-54
2020/12/15 07:16:02;;;;;;;;;;;15.00;73.60;;;;;;2077774;28;1228;-53
2020/12/15 07:17:22;;;;;;;;;;;15.00;73.30;;;;;;2076705;28;967;-52
2020/12/15 07:18:41;;;;;;;;;;;15.10;72.60;;;;;;2076236;28;1123;-51
2020/12/15 07:20:01;;;;;;;;;;;15.10;72.30;;;;;;2075314;28;1122;-51
2020/12/15 07:21:23;;;;;;;;;;;15.10;72.20;;;;;;2074937;28;1414;-53
2020/12/15 07:22:42;;;;;;;;;;;15.10;72.20;;;;;;2078666;28;1187;-50
2020/12/15 07:24:01;;;;;;;;;;;15.10;72.10;;;;;;2077877;28;1369;-52
2020/12/15 07:25:21;;;;;;;;;;;15.10;72.20;;;;;;2068932;28;1255;-54
2020/12/15 07:26:40;;;;;;;;;;;15.10;73.10;;;;;;2075287;28;1092;-52
2020/12/15 07:27:59;;;;;;;;;;;15.10;73.90;;;;;;2074984;28;1435;-53
2020/12/15 07:29:18;;;;;;;;;;;15.20;74.90;;;;;;2074963;28;1193;-54
2020/12/15 07:30:38;;;;;;;;;;;15.20;74.80;;;;;;2074616;28;1906;-50
2020/12/15 07:31:57;;;;;;;;;;;15.10;74.60;;;;;;2078092;28;1353;-50
2020/12/15 07:33:16;;;;;;;;;;;15.10;74.80;;;;;;2077495;28;1120;-50
2020/12/15 07:34:36;;;;;;;;;;;15.10;75.10;;;;;;2077669;28;1457;-50
2020/12/15 07:35:55;;;;;;;;;;;15.10;75.40;;;;;;2077911;28;1115;-51
2020/12/15 07:37:17;;;;;;;;;;;15.00;75.50;;;;;;2078363;28;1413;-55
2020/12/15 07:38:36;;;;;;;;;;;15.10;75.80;;;;;;2077410;28;1096;-51
2020/12/15 07:40:01;;;;;;;;;;;15.00;75.80;;;;;;2077933;28;1087;-53
2020/12/15 07:41:20;;;;;;;;;;;15.00;76.00;;;;;;2078206;28;1423;-53
2020/12/15 07:42:39;;;;;;;;;;;15.00;76.20;;;;;;2074917;28;1197;-51
2020/12/15 07:43:58;;;;;;;;;;;15.00;76.40;;;;;;2067585;28;1235;-52
2020/12/15 07:45:18;;;;;;;;;;;15.00;76.50;;;;;;2072430;28;1220;-50
2020/12/15 07:46:42;;;;;;;;;;;15.00;76.70;;;;;;2077731;28;1425;-52
2020/12/15 07:48:04;;;;;;;;;;;15.00;76.90;;;;;;2073991;28;1177;-52
2020/12/15 07:49:24;;;;;;;;;;;14.90;77.00;;;;;;2073130;28;1209;-51
2020/12/15 07:50:43;;;;;;;;;;;14.90;77.20;;;;;;2067907;28;2261;-51
2020/12/15 07:52:03;;;;;;;;;;;14.90;77.40;;;;;;2074157;28;1217;-51
2020/12/15 07:53:22;;;;;;;;;;;14.90;77.60;;;;;;2081781;28;1209;-53
2020/12/15 07:54:42;;;;;;;;;;;14.90;77.70;;;;;;2075991;28;1231;-52
2020/12/15 07:56:02;;;;;;;;;;;14.80;77.80;;;;;;2073632;28;1135;-51
2020/12/15 07:57:21;;;;;;;;;;;14.80;78.10;;;;;;2072005;28;1236;-53
2020/12/15 07:58:40;;;;;;;;;;;14.80;78.30;;;;;;2073932;28;1210;-54
2020/12/15 08:00:03;;;;;;;;;;;14.80;78.50;;;;;;2067090;28;1437;-52
2020/12/15 08:01:31;;;;;;;;;;;14.80;78.70;;;;;;2078184;28;1501;-51
2020/12/15 08:02:51;;;;;;;;;;;14.70;78.90;;;;;;2078232;28;1145;-54
2020/12/15 08:04:13;;;;;;;;;;;14.70;79.20;;;;;;2080894;28;1209;-52
2020/12/15 08:05:32;;;;;;;;;;;14.70;79.20;;;;;;2078822;28;1180;-53
2020/12/15 08:06:52;;;;;;;;;;;14.70;79.60;;;;;;2076148;28;1047;-51
2020/12/15 08:08:11;;;;;;;;;;;14.70;79.70;;;;;;2080810;28;938;-51
2020/12/15 08:09:32;;;;;;;;;;;14.70;79.80;;;;;;2070938;28;1197;-53
2020/12/15 08:10:51;;;;;;;;;;;14.60;80.00;;;;;;2078131;28;1907;-52